Data for 12/25/2016

Time Sea-Level Adjusted Pressure Absolute Pressure Temperature Relative Humidity Dew Point   
(mb) (inHg) (mb) (inHg) (C) (F) (%) (C) (F)
00:05 1007 29.74 836 24.69 -8.7 16.3 81 -11.5 11.3
00:10 1007 29.74 836 24.69 -8.7 16.3 80 -11.6 11.2
00:15 1007 29.74 836 24.69 -8.7 16.3 80 -11.6 11.1
00:20 1007 29.74 836 24.69 -8.7 16.4 78 -11.8 10.7
00:25 1007 29.74 836 24.69 -8.7 16.4 78 -11.8 10.7
00:30 1007 29.74 836 24.69 -8.7 16.4 77 -12 10.5
00:35 1007 29.74 836 24.69 -8.6 16.5 77 -11.9 10.5
00:40 1007 29.74 836 24.69 -8.6 16.5 77 -11.9 10.5
00:45 1007 29.74 837 24.72 -8.6 16.5 77 -12 10.4
00:50 1007 29.74 837 24.72 -8.7 16.4 76 -12.2 10.1
00:55 1007 29.74 837 24.72 -8.6 16.4 76 -12.1 10.2
01:00 1007 29.74 837 24.72 -8.7 16.4 76 -12.1 10.1
01:05 1007 29.74 837 24.72 -8.6 16.5 76 -12.1 10.3
01:10 1007 29.74 837 24.72 -8.6 16.6 76 -12.1 10.1
01:15 1007 29.74 837 24.72 -8.5 16.7 75 -12.2 10.1
01:20 1007 29.74 837 24.72 -8.5 16.8 76 -12 10.3
01:25 1007 29.74 837 24.72 -8.4 16.9 75 -12 10.3
01:30 1007 29.74 837 24.72 -8.4 16.9 76 -12 10.4
01:35 1008 29.77 837 24.72 -8.4 16.9 76 -11.9 10.6
01:40 1008 29.77 837 24.72 -8.4 16.9 75 -12 10.4
01:45 1008 29.77 837 24.72 -8.4 16.9 76 -12 10.4
01:50 1008 29.77 837 24.72 -8.4 16.8 76 -12 10.5
01:55 1008 29.77 837 24.72 -8.4 16.9 76 -11.9 10.7
02:00 1008 29.77 837 24.72 -8.4 16.9 77 -11.8 10.8
02:05 1008 29.77 837 24.72 -8.4 16.9 78 -11.6 11.2
02:10 1008 29.77 837 24.72 -8.4 16.9 80 -11.3 11.6
02:15 1008 29.77 837 24.72 -8.4 16.9 81 -11 12.2
02:20 1008 29.77 837 24.72 -8.3 17 84 -10.6 12.9
02:25 1008 29.77 838 24.75 -8.4 16.9 84 -10.6 13
02:30 1008 29.77 838 24.75 -8.5 16.7 85 -10.6 12.9
02:35 1008 29.77 838 24.75 -8.7 16.3 85 -10.8 12.6
02:40 1008 29.77 838 24.75 -8.8 16.2 86 -10.8 12.6
02:45 1009 29.8 838 24.75 -8.9 15.9 85 -11 12.1
02:50 1009 29.8 838 24.75 -9.1 15.7 85 -11.1 11.9
02:55 1009 29.8 838 24.75 -9.2 15.5 85 -11.2 11.9
03:00 1009 29.8 838 24.75 -9.2 15.4 86 -11.2 11.9
03:05 1009 29.8 838 24.75 -9.2 15.5 85 -11.3 11.7
03:10 1009 29.8 838 24.75 -9.3 15.3 85 -11.3 11.6
03:15 1009 29.8 838 24.75 -9.2 15.4 86 -11.2 11.8
03:20 1009 29.8 838 24.75 -9.2 15.4 85 -11.3 11.6
03:25 1009 29.8 838 24.75 -9.3 15.3 85 -11.3 11.7
03:30 1009 29.8 838 24.75 -9.3 15.4 85 -11.4 11.5
03:35 1009 29.8 838 24.75 -9.2 15.4 85 -11.4 11.6
03:40 1009 29.8 838 24.75 -9.2 15.4 85 -11.3 11.7
03:45 1009 29.8 838 24.75 -9.2 15.5 86 -11.2 11.9
03:50 1009 29.8 838 24.75 -9.1 15.5 85 -11.2 11.8
03:55 1009 29.8 838 24.75 -9.3 15.3 84 -11.5 11.4
04:00 1009 29.8 838 24.75 -9.4 15.1 85 -11.5 11.3
04:05 1009 29.8 838 24.75 -9.3 15.2 85 -11.5 11.4
04:10 1009 29.8 838 24.75 -9.4 15.1 84 -11.6 11
04:15 1009 29.8 838 24.75 -9.5 14.9 85 -11.6 11
04:20 1009 29.8 838 24.75 -9.6 14.7 83 -11.9 10.5
04:25 1009 29.8 838 24.75 -9.8 14.4 84 -12.1 10.3
04:30 1009 29.8 838 24.75 -9.9 14.3 84 -12.1 10.1
04:35 1009 29.8 838 24.75 -9.9 14.2 84 -12.1 10.3
04:40 1009 29.8 838 24.75 -9.8 14.4 83 -12.2 10.1
04:45 1009 29.8 838 24.75 -9.9 14.2 84 -12.2 10.1
04:50 1009 29.8 838 24.75 -9.9 14.2 82 -12.4 9.7
04:55 1009 29.8 838 24.75 -10 13.9 83 -12.4 9.7
05:00 1009 29.8 838 24.75 -10.1 13.9 82 -12.6 9.3
05:05 1009 29.8 838 24.75 -10.1 13.8 81 -12.8 9
05:10 1009 29.8 838 24.75 -10.3 13.5 82 -12.8 9
05:15 1009 29.8 838 24.75 -10.4 13.3 82 -12.9 8.9
05:20 1009 29.8 838 24.75 -10.4 13.3 82 -12.9 8.8
05:25 1009 29.8 839 24.78 -10.4 13.3 82 -12.9 8.8
05:30 1009 29.8 839 24.78 -10.4 13.3 82 -13 8.6
05:35 1009 29.8 839 24.78 -10.5 13 83 -12.9 8.9
05:40 1009 29.8 839 24.78 -10.6 13 83 -12.9 8.8
05:45 1010 29.83 839 24.78 -10.6 12.9 83 -13 8.6
05:50 1010 29.83 839 24.78 -10.8 12.5 84 -13.1 8.5
05:55 1010 29.83 839 24.78 -11 12.2 84 -13.2 8.3
06:00 1010 29.83 839 24.78 -11.1 12 85 -13.2 8.3
06:05 1010 29.83 839 24.78 -11.1 12 85 -13.2 8.2
06:10 1010 29.83 839 24.78 -11.2 11.9 85 -13.3 8
06:15 1010 29.83 839 24.78 -11.3 11.7 85 -13.3 8.1
06:20 1010 29.83 839 24.78 -11.3 11.7 86 -13.2 8.2
06:25 1010 29.83 839 24.78 -11.2 11.8 85 -13.3 8.1
06:30 1010 29.83 839 24.78 -11.3 11.7 86 -13.2 8.2
06:35 1010 29.83 839 24.78 -11.3 11.7 86 -13.2 8.2
06:40 1010 29.83 839 24.78 -11.3 11.6 85 -13.3 8.1
06:45 1010 29.83 839 24.78 -11.3 11.6 85 -13.4 8
06:50 1010 29.83 839 24.78 -11.4 11.5 85 -13.4 7.8
06:55 1010 29.83 839 24.78 -11.4 11.5 85 -13.5 7.8
07:00 1010 29.83 839 24.78 -11.4 11.4 85 -13.5 7.6
07:05 1010 29.83 839 24.78 -11.5 11.4 85 -13.5 7.7
07:10 1010 29.83 839 24.78 -11.4 11.5 85 -13.4 7.8
07:15 1010 29.83 839 24.78 -11.4 11.5 85 -13.5 7.7
07:20 1010 29.83 839 24.78 -11.4 11.5 84 -13.6 7.6
07:25 1010 29.83 839 24.78 -11.5 11.3 84 -13.6 7.5
07:30 1010 29.83 839 24.78 -11.5 11.3 85 -13.6 7.5
07:35 1010 29.83 839 24.78 -11.6 11.2 85 -13.6 7.5
07:40 1010 29.83 839 24.78 -11.6 11.2 84 -13.7 7.3
07:45 1010 29.83 839 24.78 -11.6 11.1 84 -13.8 7.2
07:50 1010 29.83 839 24.78 -11.6 11.2 85 -13.7 7.4
07:55 1010 29.83 839 24.78 -11.6 11.2 84 -13.8 7.2
08:00 1010 29.83 839 24.78 -11.7 10.9 84 -13.8 7.1
08:05 1010 29.83 839 24.78 -11.8 10.8 85 -13.9 7
08:10 1010 29.83 840 24.81 -11.8 10.7 84 -13.9 6.9
08:15 1010 29.83 840 24.81 -11.9 10.6 85 -14 6.9
08:20 1010 29.83 840 24.81 -11.9 10.6 85 -14 6.8
08:25 1010 29.83 840 24.81 -12 10.5 84 -14.1 6.6
08:30 1011 29.85 840 24.81 -12 10.5 84 -14.1 6.6
08:35 1011 29.85 840 24.81 -12 10.5 85 -14.1 6.7
08:40 1011 29.85 840 24.81 -12 10.4 84 -14.2 6.5
08:45 1011 29.85 840 24.81 -12.1 10.3 84 -14.2 6.4
08:50 1011 29.85 840 24.81 -12.1 10.3 84 -14.3 6.3
08:55 1011 29.85 840 24.81 -12.1 10.3 84 -14.2 6.4
09:00 1011 29.85 840 24.81 -12.1 10.2 84 -14.2 6.4
09:05 1011 29.85 840 24.81 -12.2 10.1 83 -14.4 6
09:10 1011 29.85 840 24.81 -12.3 10 84 -14.4 6.1
09:15 1011 29.85 840 24.81 -12.2 10 85 -14.3 6.3
09:20 1011 29.85 840 24.81 -12.2 10.1 84 -14.4 6.1
09:25 1011 29.85 840 24.81 -12.1 10.2 84 -14.4 6.2
09:30 1011 29.85 840 24.81 -12 10.3 83 -14.3 6.3
09:35 1011 29.85 840 24.81 -12.1 10.3 84 -14.2 6.4
09:40 1011 29.85 840 24.81 -12 10.5 83 -14.3 6.2
09:45 1011 29.85 840 24.81 -12.2 10.1 83 -14.5 5.9
09:50 1011 29.85 840 24.81 -12.3 10 83 -14.5 5.8
09:55 1011 29.85 841 24.83 -12.3 10 83 -14.6 5.6
10:00 1012 29.88 841 24.83 -12.3 9.8 81 -14.9 5.2
10:05 1012 29.88 841 24.83 -12.4 9.7 83 -14.6 5.6
10:10 1012 29.88 841 24.83 -12.1 10.2 83 -14.5 5.9
10:15 1012 29.88 841 24.83 -12 10.5 81 -14.6 5.7
10:20 1012 29.88 841 24.83 -12.2 10.1 81 -14.8 5.4
10:25 1012 29.88 841 24.83 -12.3 9.9 82 -14.7 5.6
10:30 1012 29.88 841 24.83 -12.1 10.2 82 -14.6 5.8
10:35 1012 29.88 841 24.83 -12.1 10.1 82 -14.7 5.6
10:40 1012 29.88 841 24.83 -12.1 10.2 82 -14.6 5.7
10:45 1012 29.88 841 24.83 -12.2 10.1 83 -14.6 5.8
10:50 1012 29.88 841 24.83 -12 10.3 80 -14.8 5.3
10:55 1012 29.88 841 24.83 -12.1 10.2 82 -14.7 5.6
11:00 1012 29.88 841 24.83 -12.1 10.2 81 -14.7 5.6
11:05 1012 29.88 841 24.83 -12.1 10.2 82 -14.6 5.7
11:10 1012 29.88 841 24.83 -12 10.3 82 -14.5 5.9
11:15 1012 29.88 841 24.83 -11.9 10.5 80 -14.8 5.4
11:20 1012 29.88 841 24.83 -12.2 10 81 -14.9 5.2
11:25 1012 29.88 841 24.83 -12.3 9.9 80 -15.1 4.8
11:30 1012 29.88 841 24.83 -12.3 9.8 80 -15.1 4.8
11:35 1012 29.88 841 24.83 -12.4 9.8 81 -15 5
11:40 1012 29.88 841 24.83 -12.3 10 82 -14.8 5.4
11:45 1012 29.88 841 24.83 -12 10.3 81 -14.7 5.5
11:50 1012 29.88 841 24.83 -12 10.4 81 -14.6 5.7
11:55 1012 29.88 841 24.83 -12.1 10.3 80 -14.8 5.3
12:00 1012 29.88 841 24.83 -12.1 10.2 80 -14.9 5.1
12:05 1012 29.88 841 24.83 -12.3 9.9 82 -14.7 5.5
12:10 1012 29.88 841 24.83 -12 10.4 81 -14.6 5.7
12:15 1012 29.88 841 24.83 -11.9 10.6 82 -14.4 6.1
12:20 1012 29.88 841 24.83 -11.7 10.9 80 -14.5 5.9
12:25 1012 29.88 841 24.83 -11.8 10.7 81 -14.5 5.9
12:30 1012 29.88 841 24.83 -12.1 10.3 82 -14.6 5.7
12:35 1012 29.88 841 24.83 -12 10.3 81 -14.7 5.6
12:40 1012 29.88 841 24.83 -11.9 10.5 82 -14.4 6.1
12:45 1012 29.88 841 24.83 -11.8 10.8 80 -14.5 5.9
12:50 1012 29.88 841 24.83 -12 10.3 83 -14.4 6.1
12:55 1012 29.88 841 24.83 -11.8 10.9 83 -14.1 6.6
13:00 1012 29.88 841 24.83 -11.6 11.1 81 -14.2 6.5
13:05 1012 29.88 841 24.83 -11.8 10.8 82 -14.3 6.3
13:10 1012 29.88 841 24.83 -11.6 11.1 80 -14.4 6.1
13:15 1012 29.88 841 24.83 -11.7 11 80 -14.4 6.1
13:20 1012 29.88 841 24.83 -11.7 11 80 -14.5 5.9
13:25 1012 29.88 841 24.83 -11.6 11.2 81 -14.2 6.4
13:30 1012 29.88 841 24.83 -11.3 11.8 79 -14.2 6.5
13:35 1012 29.88 841 24.83 -11.2 11.9 78 -14.3 6.3
13:40 1012 29.88 841 24.83 -11.3 11.7 78 -14.4 6.1
13:45 1012 29.88 842 24.86 -11.4 11.6 78 -14.5 5.9
13:50 1012 29.88 842 24.86 -11.3 11.7 76 -14.8 5.4
13:55 1013 29.91 842 24.86 -11.5 11.2 77 -14.9 5.2
14:00 1013 29.91 842 24.86 -11.7 11 78 -14.8 5.3
14:05 1013 29.91 842 24.86 -11.6 11.2 78 -14.7 5.5
14:10 1013 29.91 842 24.86 -11.5 11.4 77 -14.8 5.4
14:15 1013 29.91 842 24.86 -11.5 11.3 76 -14.9 5.2
14:20 1013 29.91 842 24.86 -11.6 11.2 77 -14.8 5.3
14:25 1013 29.91 842 24.86 -11.6 11 78 -14.8 5.4
14:30 1013 29.91 842 24.86 -11.5 11.3 77 -14.7 5.5
14:35 1013 29.91 842 24.86 -11.5 11.3 77 -14.7 5.5
14:40 1013 29.91 842 24.86 -11.5 11.3 77 -14.8 5.4
14:45 1013 29.91 842 24.86 -11.5 11.3 77 -14.8 5.3
14:50 1013 29.91 842 24.86 -11.5 11.3 78 -14.6 5.6
14:55 1013 29.91 842 24.86 -11.5 11.2 77 -14.8 5.4
15:00 1013 29.91 842 24.86 -11.7 11 78 -14.8 5.4
15:05 1013 29.91 843 24.89 -11.6 11.1 78 -14.8 5.4
15:10 1013 29.91 843 24.89 -11.7 11 78 -14.7 5.5
15:15 1014 29.94 843 24.89 -11.7 11 78 -14.7 5.5
15:20 1014 29.94 843 24.89 -11.6 11 78 -14.7 5.5
15:25 1014 29.94 843 24.89 -11.8 10.8 78 -14.8 5.3
15:30 1014 29.94 843 24.89 -12 10.4 79 -14.9 5.2
15:35 1014 29.94 843 24.89 -12 10.3 80 -14.8 5.4
15:40 1014 29.94 843 24.89 -12 10.3 80 -14.8 5.4
15:45 1014 29.94 843 24.89 -12.1 10.2 80 -14.8 5.3
15:50 1014 29.94 843 24.89 -12.1 10.1 81 -14.8 5.4
15:55 1014 29.94 843 24.89 -12.2 10.1 81 -14.8 5.3
16:00 1014 29.94 843 24.89 -12.2 10.1 81 -14.9 5.3
16:05 1014 29.94 843 24.89 -12.3 9.9 81 -15 5
16:10 1014 29.94 843 24.89 -12.4 9.7 81 -15 5
16:15 1014 29.94 843 24.89 -12.4 9.6 81 -15.1 4.8
16:20 1014 29.94 843 24.89 -12.6 9.3 82 -15.1 4.9
16:25 1014 29.94 843 24.89 -12.6 9.3 82 -15.2 4.7
16:30 1014 29.94 843 24.89 -12.6 9.3 81 -15.3 4.5
16:35 1014 29.94 843 24.89 -12.7 9.2 81 -15.3 4.5
16:40 1014 29.94 843 24.89 -12.8 9 82 -15.2 4.6
16:45 1014 29.94 843 24.89 -12.7 9.1 82 -15.2 4.6
16:50 1014 29.94 843 24.89 -12.7 9.1 82 -15.2 4.6
16:55 1014 29.94 844 24.92 -12.8 8.9 82 -15.3 4.5
17:00 1014 29.94 844 24.92 -12.9 8.8 82 -15.3 4.5
17:05 1014 29.94 844 24.92 -12.9 8.7 82 -15.4 4.4
17:10 1014 29.94 844 24.92 -13 8.7 83 -15.3 4.4
17:15 1014 29.94 844 24.92 -12.9 8.7 82 -15.3 4.4
17:20 1015 29.97 844 24.92 -12.8 8.9 82 -15.3 4.5
17:25 1015 29.97 844 24.92 -12.8 8.9 82 -15.2 4.6
17:30 1015 29.97 844 24.92 -12.8 9 82 -15.3 4.5
17:35 1015 29.97 844 24.92 -12.8 9 82 -15.2 4.6
17:40 1015 29.97 844 24.92 -12.8 9 82 -15.3 4.5
17:45 1015 29.97 844 24.92 -12.7 9.1 82 -15.2 4.7
17:50 1015 29.97 844 24.92 -12.7 9.2 82 -15.1 4.8
17:55 1015 29.97 844 24.92 -12.6 9.3 82 -15.1 4.7
18:00 1015 29.97 844 24.92 -12.6 9.3 81 -15.2 4.7
18:05 1015 29.97 844 24.92 -12.6 9.3 81 -15.2 4.6
18:10 1015 29.97 844 24.92 -12.6 9.3 81 -15.3 4.5
18:15 1015 29.97 844 24.92 -12.6 9.2 81 -15.3 4.5
18:20 1015 29.97 844 24.92 -12.7 9.2 81 -15.3 4.4
18:25 1015 29.97 844 24.92 -12.7 9.2 81 -15.3 4.4
18:30 1015 29.97 844 24.92 -12.7 9.1 81 -15.4 4.2
18:35 1015 29.97 844 24.92 -12.7 9.1 81 -15.4 4.3
18:40 1015 29.97 844 24.92 -12.7 9.1 81 -15.4 4.2
18:45 1015 29.97 844 24.92 -12.7 9.1 81 -15.4 4.3
18:50 1015 29.97 844 24.92 -12.7 9.2 81 -15.3 4.5
18:55 1015 29.97 844 24.92 -12.7 9.2 81 -15.2 4.6
19:00 1015 29.97 844 24.92 -12.6 9.3 81 -15.2 4.6
19:05 1015 29.97 844 24.92 -12.7 9.2 81 -15.2 4.6
19:10 1015 29.97 844 24.92 -12.6 9.3 81 -15.2 4.7
19:15 1015 29.97 844 24.92 -12.6 9.3 82 -15.1 4.8
19:20 1015 29.97 844 24.92 -12.6 9.4 81 -15.2 4.7
19:25 1015 29.97 844 24.92 -12.6 9.3 81 -15.2 4.6
19:30 1015 29.97 844 24.92 -12.6 9.3 81 -15.2 4.7
19:35 1015 29.97 844 24.92 -12.6 9.4 81 -15.2 4.6
19:40 1015 29.97 844 24.92 -12.6 9.4 81 -15.2 4.7
19:45 1015 29.97 844 24.92 -12.5 9.5 81 -15.2 4.7
19:50 1015 29.97 844 24.92 -12.5 9.5 81 -15.1 4.9
19:55 1015 29.97 844 24.92 -12.6 9.4 82 -15.1 4.8
20:00 1015 29.97 844 24.92 -12.6 9.3 82 -15.1 4.8
20:05 1015 29.97 845 24.95 -12.6 9.3 82 -15.1 4.7
20:10 1015 29.97 845 24.95 -12.6 9.3 82 -15.1 4.8
20:15 1015 29.97 844 24.92 -12.6 9.2 82 -15.1 4.8
20:20 1015 29.97 844 24.92 -12.7 9.2 82 -15.1 4.8
20:25 1015 29.97 844 24.92 -12.6 9.2 82 -15.2 4.7
20:30 1015 29.97 844 24.92 -12.7 9.2 82 -15.1 4.9
20:35 1015 29.97 845 24.95 -12.6 9.3 82 -15.1 4.9
20:40 1015 29.97 845 24.95 -12.6 9.4 82 -15.1 4.9
20:45 1015 29.97 845 24.95 -12.6 9.3 83 -15 5
20:50 1015 29.97 845 24.95 -12.7 9.2 82 -15.2 4.7
20:55 1015 29.97 844 24.92 -12.8 9 83 -15 4.9
21:00 1015 29.97 845 24.95 -12.7 9.2 82 -15.2 4.7
21:05 1015 29.97 845 24.95 -12.7 9.2 83 -15.1 4.9
21:10 1015 29.97 845 24.95 -12.6 9.3 82 -15.1 4.9
21:15 1016 30 845 24.95 -12.6 9.3 82 -15 4.9
21:20 1016 30 845 24.95 -12.6 9.3 82 -15 5
21:25 1016 30 845 24.95 -12.6 9.3 83 -15 5.1
21:30 1016 30 845 24.95 -12.6 9.3 82 -15 5
21:35 1016 30 845 24.95 -12.6 9.4 83 -14.9 5.2
21:40 1016 30 845 24.95 -12.5 9.4 83 -14.9 5.2
21:45 1016 30 845 24.95 -12.5 9.5 82 -14.9 5.1
21:50 1016 30 845 24.95 -12.7 9.2 82 -15.1 4.8
21:55 1016 30 845 24.95 -12.8 9 83 -15.1 4.8
22:00 1016 30 845 24.95 -12.8 8.9 84 -15 5
22:05 1016 30 845 24.95 -12.7 9.1 83 -15 5
22:10 1016 30 845 24.95 -12.7 9.1 84 -15 5
22:15 1016 30 845 24.95 -12.7 9.2 84 -14.9 5.2
22:20 1016 30 845 24.95 -12.6 9.4 84 -14.8 5.3
22:25 1016 30 845 24.95 -12.5 9.5 83 -14.8 5.4
22:30 1016 30 845 24.95 -12.4 9.6 83 -14.8 5.4
22:35 1016 30 845 24.95 -12.4 9.7 83 -14.7 5.5
22:40 1016 30 845 24.95 -12.4 9.7 83 -14.7 5.6
22:45 1016 30 845 24.95 -12.3 9.8 83 -14.6 5.7
22:50 1016 30 845 24.95 -12.3 9.9 83 -14.6 5.6
22:55 1016 30 846 24.98 -12.3 9.9 83 -14.6 5.7
23:00 1016 30 846 24.98 -12.3 9.9 83 -14.7 5.6
23:05 1016 30 846 24.98 -12.3 9.9 83 -14.6 5.7
23:10 1017 30.03 846 24.98 -12.3 9.9 83 -14.6 5.7
23:15 1017 30.03 846 24.98 -12.3 9.9 83 -14.6 5.7
23:20 1017 30.03 846 24.98 -12.3 9.9 83 -14.6 5.6
23:25 1017 30.03 846 24.98 -12.3 10 83 -14.5 5.9
23:30 1017 30.03 846 24.98 -12.2 10.1 83 -14.4 6
23:35 1017 30.03 846 24.98 -12.1 10.2 83 -14.4 6.1
23:40 1017 30.03 846 24.98 -12.1 10.1 83 -14.5 5.9
23:45 1017 30.03 846 24.98 -12.2 10.1 83 -14.5 5.9
23:50 1017 30.03 846 24.98 -12.1 10.2 83 -14.4 6
23:55 1017 30.03 846 24.98 -12.1 10.2 83 -14.4 6
24:00 1017 30.03 846 24.98 -12.1 10.2 83 -14.4 6.1